Time,TemperatureF,DewpointF,PressureIn,WindDirection,WindDirectionDegrees,WindSpeedMPH,WindSpeedGustMPH,Humidity,HourlyPrecipIn,Conditions,Clouds,dailyrainin,SoftwareType,DateUTC
2013-04-13 00:02:00,36.5,17.2,23.81,South,180,6.0,15.0,45,0.00,,,0.00,meteohub,2013-04-13 06:02:00,
2013-04-13 00:07:00,36.5,17.2,23.80,South,180,6.0,14.0,45,0.00,,,0.00,meteohub,2013-04-13 06:07:00,
2013-04-13 00:12:00,38.7,17.6,23.80,SW,225,16.0,16.0,42,0.00,,,0.00,meteohub,2013-04-13 06:12:00,
2013-04-13 00:17:00,38.1,16.0,23.80,South,180,5.0,17.0,40,0.00,,,0.00,meteohub,2013-04-13 06:17:00,
2013-04-13 00:22:00,37.8,17.2,23.80,South,180,10.0,17.0,43,0.00,,,0.00,meteohub,2013-04-13 06:22:00,
2013-04-13 00:27:00,37.2,17.8,23.80,SW,225,16.0,16.0,45,0.00,,,0.00,meteohub,2013-04-13 06:27:00,
2013-04-13 00:37:00,37.9,18.0,23.79,West,270,9.0,23.0,44,0.00,,,0.00,meteohub,2013-04-13 06:37:00,
2013-04-13 00:47:00,38.7,19.2,23.78,SW,225,21.0,22.0,45,0.00,,,0.00,meteohub,2013-04-13 06:47:00,
2013-04-13 00:52:00,38.8,20.3,23.78,SW,225,15.0,21.0,47,0.00,,,0.00,meteohub,2013-04-13 06:52:00,
2013-04-13 00:57:00,38.8,20.8,23.78,SW,225,22.0,24.0,48,0.00,,,0.00,meteohub,2013-04-13 06:57:00,
2013-04-13 01:07:00,38.3,21.2,23.78,SW,225,24.0,28.0,50,0.00,,,0.00,meteohub,2013-04-13 07:07:00,
2013-04-13 01:17:00,37.6,20.1,23.77,South,180,11.0,24.0,49,0.00,,,0.00,meteohub,2013-04-13 07:17:00,
2013-04-13 01:27:00,37.2,22.1,23.76,SSW,203,15.0,15.0,54,0.00,,,0.00,meteohub,2013-04-13 07:27:00,
2013-04-13 01:32:00,37.2,22.1,23.76,South,180,17.0,17.0,54,0.00,,,0.00,meteohub,2013-04-13 07:32:00,
2013-04-13 01:37:00,37.2,22.1,23.76,South,180,18.0,19.0,54,0.00,,,0.00,meteohub,2013-04-13 07:37:00,
2013-04-13 01:47:00,37.6,21.9,23.75,South,180,24.0,24.0,53,0.00,,,0.00,meteohub,2013-04-13 07:47:00,
2013-04-13 01:57:00,37.2,23.7,23.75,South,180,23.0,30.0,58,0.00,,,0.00,meteohub,2013-04-13 07:57:00,
2013-04-13 02:02:00,37.2,24.3,23.74,South,180,24.0,33.0,59,0.00,,,0.00,meteohub,2013-04-13 08:02:00,
2013-04-13 02:12:00,36.9,24.6,23.74,South,180,22.0,27.0,61,0.00,,,0.00,meteohub,2013-04-13 08:12:00,
2013-04-13 02:22:00,36.5,25.5,23.72,South,180,23.0,25.0,64,0.00,,,0.00,meteohub,2013-04-13 08:22:00,
2013-04-13 02:27:00,36.3,26.1,23.72,South,180,27.0,27.0,66,0.00,,,0.00,meteohub,2013-04-13 08:27:00,
2013-04-13 02:32:00,36.0,26.4,23.72,South,180,25.0,29.0,68,0.00,,,0.00,meteohub,2013-04-13 08:32:00,
2013-04-13 02:37:00,34.7,27.9,23.71,South,180,30.0,34.0,76,0.00,,,0.00,meteohub,2013-04-13 08:37:00,
2013-04-13 02:42:00,34.2,28.4,23.70,SSE,158,34.0,34.0,79,0.00,,,0.00,meteohub,2013-04-13 08:42:00,
2013-04-13 02:52:00,33.6,28.9,23.72,South,180,23.0,35.0,83,0.00,,,0.00,meteohub,2013-04-13 08:52:00,
2013-04-13 02:57:00,33.3,29.5,23.71,South,180,27.0,35.0,86,0.00,,,0.00,meteohub,2013-04-13 08:57:00,
2013-04-13 03:07:00,33.1,29.7,23.70,South,180,23.0,30.0,87,0.00,,,0.00,meteohub,2013-04-13 09:07:00,
2013-04-13 03:12:00,32.7,29.5,23.70,South,180,27.0,30.0,88,0.00,,,0.00,meteohub,2013-04-13 09:12:00,
2013-04-13 03:17:00,32.7,29.5,23.70,South,180,23.0,28.0,88,0.00,,,0.00,meteohub,2013-04-13 09:17:00,
2013-04-13 03:27:00,32.9,29.5,23.70,South,180,28.0,28.0,87,0.00,,,0.00,meteohub,2013-04-13 09:27:00,
2013-04-13 03:37:00,33.1,29.3,23.70,South,180,19.0,28.0,86,0.00,,,0.00,meteohub,2013-04-13 09:37:00,
2013-04-13 03:42:00,33.1,29.7,23.69,South,180,23.0,28.0,87,0.00,,,0.00,meteohub,2013-04-13 09:42:00,
2013-04-13 03:47:00,32.9,30.4,23.70,South,180,23.0,28.0,90,0.00,,,0.00,meteohub,2013-04-13 09:47:00,
2013-04-13 03:57:00,32.4,30.7,23.69,South,180,26.0,33.0,94,0.00,,,0.00,meteohub,2013-04-13 09:57:00,
2013-04-13 04:02:00,32.2,30.6,23.69,South,180,26.0,33.0,94,0.00,,,0.00,meteohub,2013-04-13 10:02:00,
2013-04-13 04:12:00,32.0,30.9,23.68,South,180,27.0,30.0,96,0.00,,,0.00,meteohub,2013-04-13 10:12:00,
2013-04-13 04:17:00,32.0,30.9,23.68,South,180,26.0,30.0,96,0.00,,,0.00,meteohub,2013-04-13 10:17:00,
2013-04-13 04:22:00,32.0,31.3,23.68,South,180,27.0,30.0,97,0.00,,,0.00,meteohub,2013-04-13 10:22:00,
2013-04-13 04:32:00,31.6,31.1,23.68,South,180,22.0,29.0,98,0.00,,,0.00,meteohub,2013-04-13 10:32:00,
2013-04-13 04:42:00,31.6,31.5,23.68,South,180,23.0,27.0,99,0.00,,,0.00,meteohub,2013-04-13 10:42:00,
2013-04-13 04:47:00,31.5,31.3,23.68,South,180,23.0,24.0,99,0.00,,,0.00,meteohub,2013-04-13 10:47:00,
2013-04-13 04:57:00,31.5,31.3,23.68,South,180,18.0,24.0,99,0.00,,,0.00,meteohub,2013-04-13 10:57:00,
2013-04-13 05:02:00,31.5,31.3,23.68,South,180,19.0,24.0,99,0.00,,,0.00,meteohub,2013-04-13 11:02:00,
2013-04-13 05:07:00,31.5,31.3,23.68,South,180,19.0,23.0,99,0.00,,,0.00,meteohub,2013-04-13 11:07:00,
2013-04-13 05:17:00,31.6,31.5,23.68,South,180,15.0,19.0,99,0.00,,,0.00,meteohub,2013-04-13 11:17:00,
2013-04-13 05:22:00,31.8,31.6,23.68,South,180,19.0,21.0,99,0.00,,,0.00,meteohub,2013-04-13 11:22:00,
2013-04-13 05:32:00,32.2,31.5,23.67,South,180,18.0,21.0,97,0.00,,,0.00,meteohub,2013-04-13 11:32:00,
2013-04-13 05:37:00,32.2,31.5,23.67,South,180,21.0,21.0,97,0.00,,,0.00,meteohub,2013-04-13 11:37:00,
2013-04-13 05:42:00,32.2,31.5,23.67,South,180,22.0,22.0,97,0.00,,,0.00,meteohub,2013-04-13 11:42:00,
2013-04-13 05:52:00,32.0,31.8,23.67,SSE,158,18.0,22.0,99,0.00,,,0.00,meteohub,2013-04-13 11:52:00,
2013-04-13 06:02:00,32.0,31.8,23.67,South,180,21.0,22.0,99,0.00,,,0.00,meteohub,2013-04-13 12:02:00,
2013-04-13 06:07:00,32.0,31.8,23.66,South,180,21.0,22.0,99,0.00,,,0.00,meteohub,2013-04-13 12:07:00,
2013-04-13 06:13:00,31.8,31.6,23.66,SSE,158,16.0,22.0,99,0.00,,,0.00,meteohub,2013-04-13 12:13:00,
2013-04-13 06:22:00,31.6,31.5,23.65,SSE,158,14.0,21.0,99,0.00,,,0.00,meteohub,2013-04-13 12:22:00,
2013-04-13 06:27:00,31.8,31.6,23.65,South,180,18.0,18.0,99,0.00,,,0.00,meteohub,2013-04-13 12:27:00,
2013-04-13 06:37:00,31.6,31.1,23.65,South,180,10.0,18.0,98,0.00,,,0.00,meteohub,2013-04-13 12:37:00,
2013-04-13 06:42:00,32.0,31.5,23.65,SW,225,13.0,18.0,98,0.00,,,0.00,meteohub,2013-04-13 12:42:00,
2013-04-13 06:52:00,33.8,30.6,23.65,SW,225,15.0,17.0,88,0.00,,,0.00,meteohub,2013-04-13 12:52:00,
2013-04-13 06:57:00,34.0,30.6,23.65,SW,225,14.0,21.0,87,0.00,,,0.00,meteohub,2013-04-13 12:57:00,
2013-04-13 07:02:00,34.3,30.4,23.65,West,270,16.0,21.0,85,0.00,,,0.00,meteohub,2013-04-13 13:02:00,
2013-04-13 07:12:00,34.7,30.4,23.65,SW,225,15.0,23.0,84,0.00,,,0.00,meteohub,2013-04-13 13:12:00,
2013-04-13 07:22:00,32.4,30.4,23.64,West,270,34.0,34.0,92,0.00,,,0.00,meteohub,2013-04-13 13:22:00,
2013-04-13 07:27:00,32.2,29.7,23.64,West,270,34.0,34.0,90,0.00,,,0.00,meteohub,2013-04-13 13:27:00,
2013-04-13 07:32:00,32.2,29.7,23.64,West,270,27.0,34.0,90,0.00,,,0.00,meteohub,2013-04-13 13:32:00,
2013-04-13 07:37:00,32.0,29.5,23.63,West,270,37.0,40.0,90,0.00,,,0.00,meteohub,2013-04-13 13:37:00,
2013-04-13 07:42:00,32.0,29.1,23.63,West,270,36.0,40.0,89,0.00,,,0.00,meteohub,2013-04-13 13:42:00,
2013-04-13 07:52:00,31.6,28.8,23.63,NW,315,34.0,39.0,89,0.00,,,0.00,meteohub,2013-04-13 13:52:00,
2013-04-13 07:57:00,32.2,28.4,23.62,NW,315,35.0,39.0,86,0.00,,,0.00,meteohub,2013-04-13 13:57:00,
2013-04-13 08:07:00,32.4,28.4,23.62,NW,315,34.0,42.0,85,0.01,,,0.01,meteohub,2013-04-13 14:07:00,
2013-04-13 08:17:00,32.5,25.5,23.62,West,270,38.0,45.0,75,0.01,,,0.01,meteohub,2013-04-13 14:17:00,
2013-04-13 08:27:00,32.2,25.2,23.62,NW,315,32.0,46.0,75,0.01,,,0.01,meteohub,2013-04-13 14:27:00,
2013-04-13 08:32:00,32.7,24.1,23.62,NW,315,38.0,46.0,70,0.01,,,0.01,meteohub,2013-04-13 14:32:00,
2013-04-13 08:42:00,33.6,22.5,23.63,NW,315,29.0,42.0,63,0.01,,,0.01,meteohub,2013-04-13 14:42:00,
2013-04-13 08:47:00,33.3,21.2,23.62,WNW,293,44.0,44.0,61,0.01,,,0.01,meteohub,2013-04-13 14:47:00,
2013-04-13 08:52:00,33.4,20.7,23.62,NW,315,35.0,44.0,59,0.01,,,0.01,meteohub,2013-04-13 14:52:00,
2013-04-13 09:02:00,33.1,20.3,23.62,NW,315,40.0,44.0,59,0.00,,,0.01,meteohub,2013-04-13 15:02:00,
2013-04-13 09:07:00,33.1,20.3,23.63,NW,315,40.0,43.0,59,0.00,,,0.01,meteohub,2013-04-13 15:07:00,
2013-04-13 09:17:00,32.5,19.8,23.63,NW,315,27.0,40.0,59,0.00,,,0.01,meteohub,2013-04-13 15:17:00,
2013-04-13 09:27:00,33.3,19.8,23.62,NW,315,29.0,34.0,57,0.00,,,0.01,meteohub,2013-04-13 15:27:00,
2013-04-13 09:32:00,33.3,19.2,23.62,NW,315,26.0,34.0,56,0.00,,,0.01,meteohub,2013-04-13 15:32:00,
2013-04-13 09:37:00,33.3,18.9,23.62,NW,315,31.0,34.0,55,0.00,,,0.01,meteohub,2013-04-13 15:37:00,
2013-04-13 09:42:00,32.9,18.9,23.62,WNW,293,29.0,34.0,56,0.00,,,0.01,meteohub,2013-04-13 15:42:00,
2013-04-13 09:52:00,32.9,18.9,23.64,NW,315,23.0,34.0,56,0.00,,,0.01,meteohub,2013-04-13 15:52:00,
2013-04-13 09:57:00,33.1,19.6,23.64,West,270,20.0,34.0,57,0.00,,,0.01,meteohub,2013-04-13 15:57:00,
2013-04-13 10:02:00,33.3,19.2,23.64,NW,315,23.0,26.0,56,0.00,,,0.01,meteohub,2013-04-13 16:02:00,
2013-04-13 10:12:00,34.0,18.7,23.64,West,270,17.0,23.0,53,0.00,,,0.01,meteohub,2013-04-13 16:12:00,
2013-04-13 10:17:00,34.0,17.8,23.64,WNW,293,21.0,23.0,51,0.00,,,0.01,meteohub,2013-04-13 16:17:00,
2013-04-13 10:27:00,33.8,16.7,23.64,NW,315,21.0,22.0,49,0.00,,,0.01,meteohub,2013-04-13 16:27:00,
2013-04-13 10:32:00,33.8,15.6,23.63,West,270,23.0,23.0,47,0.00,,,0.01,meteohub,2013-04-13 16:32:00,
2013-04-13 10:37:00,35.6,16.3,23.64,West,270,20.0,23.0,45,0.00,,,0.01,meteohub,2013-04-13 16:37:00,
2013-04-13 10:42:00,35.8,15.4,23.63,West,270,27.0,27.0,43,0.00,,,0.01,meteohub,2013-04-13 16:42:00,
2013-04-13 10:52:00,36.7,16.3,23.63,West,270,20.0,28.0,43,0.00,,,0.01,meteohub,2013-04-13 16:52:00,
2013-04-13 10:57:00,37.0,16.7,23.63,NW,315,19.0,28.0,43,0.00,,,0.01,meteohub,2013-04-13 16:57:00,
2013-04-13 11:07:00,37.6,16.0,23.64,NW,315,17.0,27.0,41,0.00,,,0.01,meteohub,2013-04-13 17:07:00,
2013-04-13 11:12:00,37.8,16.7,23.64,SW,225,6.0,27.0,42,0.00,,,0.01,meteohub,2013-04-13 17:12:00,
2013-04-13 11:17:00,36.7,16.3,23.64,NW,315,6.0,17.0,43,0.00,,,0.01,meteohub,2013-04-13 17:17:00,
2013-04-13 11:22:00,37.0,16.2,23.64,West,270,8.0,17.0,42,0.00,,,0.01,meteohub,2013-04-13 17:22:00,
2013-04-13 11:32:00,37.4,15.3,23.64,North,0,4.0,19.0,40,0.00,,,0.01,meteohub,2013-04-13 17:32:00,
2013-04-13 11:42:00,39.7,12.2,23.64,NW,315,8.0,19.0,32,0.00,,,0.01,meteohub,2013-04-13 17:42:00,
2013-04-13 11:47:00,39.2,12.6,23.64,West,270,11.0,15.0,33,0.00,,,0.01,meteohub,2013-04-13 17:47:00,
2013-04-13 11:57:00,39.6,9.9,23.62,NW,315,30.0,30.0,29,0.00,,,0.01,meteohub,2013-04-13 17:57:00,
2013-04-13 12:02:00,39.6,12.7,23.63,WNW,293,29.0,34.0,33,0.00,,,0.01,meteohub,2013-04-13 18:02:00,
2013-04-13 12:07:00,39.6,12.7,23.63,WNW,293,29.0,34.0,33,0.00,,,0.01,meteohub,2013-04-13 18:07:00,
2013-04-13 12:12:00,38.5,10.4,23.64,West,270,19.0,34.0,31,0.00,,,0.01,meteohub,2013-04-13 18:12:00,
2013-04-13 12:22:00,38.8,12.9,23.64,NW,315,20.0,29.0,34,0.00,,,0.01,meteohub,2013-04-13 18:22:00,
2013-04-13 12:27:00,37.8,11.8,23.64,NW,315,19.0,23.0,34,0.00,,,0.01,meteohub,2013-04-13 18:27:00,
2013-04-13 12:32:00,39.9,12.4,23.64,West,270,26.0,29.0,32,0.00,,,0.01,meteohub,2013-04-13 18:32:00,
2013-04-13 12:37:00,39.7,13.6,23.64,West,270,27.0,29.0,34,0.00,,,0.01,meteohub,2013-04-13 18:37:00,
2013-04-13 12:42:00,40.5,13.6,23.64,West,270,23.0,29.0,33,0.00,,,0.01,meteohub,2013-04-13 18:42:00,
2013-04-13 12:47:00,38.3,15.4,23.64,NW,315,27.0,29.0,39,0.00,,,0.01,meteohub,2013-04-13 18:47:00,
2013-04-13 12:57:00,35.8,16.0,23.63,NW,315,35.0,35.0,44,0.00,,,0.01,meteohub,2013-04-13 18:57:00,
2013-04-13 13:02:00,36.0,17.6,23.63,NW,315,37.0,37.0,47,0.00,,,0.01,meteohub,2013-04-13 19:02:00,
2013-04-13 13:12:00,37.8,13.8,23.63,NW,315,36.0,39.0,37,0.00,,,0.01,meteohub,2013-04-13 19:12:00,
2013-04-13 13:17:00,37.2,13.3,23.64,NW,315,34.0,37.0,37,0.00,,,0.01,meteohub,2013-04-13 19:17:00,
2013-04-13 13:22:00,38.7,14.0,23.65,NW,315,27.0,37.0,36,0.00,,,0.01,meteohub,2013-04-13 19:22:00,
2013-04-13 13:27:00,36.0,12.7,23.65,West,270,27.0,36.0,38,0.00,,,0.01,meteohub,2013-04-13 19:27:00,
2013-04-13 13:32:00,34.7,15.1,23.65,West,270,28.0,36.0,44,0.00,,,0.01,meteohub,2013-04-13 19:32:00,
2013-04-13 13:37:00,36.5,15.6,23.65,NW,315,30.0,39.0,42,0.00,,,0.01,meteohub,2013-04-13 19:37:00,
2013-04-13 13:42:00,37.0,14.4,23.64,NW,315,36.0,39.0,39,0.00,,,0.01,meteohub,2013-04-13 19:42:00,
2013-04-13 13:47:00,34.9,14.7,23.65,NW,315,36.0,39.0,43,0.00,,,0.01,meteohub,2013-04-13 19:47:00,
2013-04-13 13:52:00,34.3,14.7,23.66,West,270,27.0,38.0,44,0.00,,,0.01,meteohub,2013-04-13 19:52:00,
2013-04-13 13:57:00,35.1,15.8,23.66,NW,315,33.0,38.0,45,0.00,,,0.01,meteohub,2013-04-13 19:57:00,
2013-04-13 14:02:00,35.1,13.6,23.66,NW,315,29.0,37.0,41,0.00,,,0.01,meteohub,2013-04-13 20:02:00,
2013-04-13 14:07:00,35.1,13.6,23.65,NW,315,29.0,36.0,41,0.00,,,0.01,meteohub,2013-04-13 20:07:00,
2013-04-13 14:12:00,35.6,11.8,23.65,NW,315,41.0,41.0,37,0.00,,,0.01,meteohub,2013-04-13 20:12:00,
2013-04-13 14:17:00,35.4,12.9,23.65,NW,315,35.0,41.0,39,0.00,,,0.01,meteohub,2013-04-13 20:17:00,
2013-04-13 14:22:00,36.0,14.5,23.65,NW,315,40.0,41.0,41,0.00,,,0.01,meteohub,2013-04-13 20:22:00,
2013-04-13 14:27:00,35.8,12.7,23.64,NW,315,43.0,46.0,38,0.00,,,0.01,meteohub,2013-04-13 20:27:00,
2013-04-13 14:32:00,35.4,10.4,23.64,NW,315,45.0,47.0,35,0.00,,,0.01,meteohub,2013-04-13 20:32:00,
2013-04-13 14:37:00,34.5,11.5,23.65,NW,315,42.0,47.0,38,0.00,,,0.01,meteohub,2013-04-13 20:37:00,
2013-04-13 14:47:00,34.3,13.6,23.66,NW,315,40.0,47.0,42,0.00,,,0.01,meteohub,2013-04-13 20:47:00,
2013-04-13 14:57:00,34.5,13.3,23.66,WNW,293,46.0,46.0,41,0.00,,,0.01,meteohub,2013-04-13 20:57:00,
2013-04-13 15:02:00,35.2,13.3,23.66,NW,315,38.0,46.0,40,0.00,,,0.01,meteohub,2013-04-13 21:02:00,
2013-04-13 15:07:00,35.2,13.3,23.66,NW,315,38.0,46.0,40,0.00,,,0.01,meteohub,2013-04-13 21:07:00,
2013-04-13 15:12:00,35.1,9.5,23.66,NW,315,43.0,46.0,34,0.00,,,0.01,meteohub,2013-04-13 21:12:00,
2013-04-13 15:17:00,33.4,6.8,23.66,WNW,293,41.0,49.0,32,0.00,,,0.01,meteohub,2013-04-13 21:17:00,
2013-04-13 15:22:00,32.5,6.6,23.68,West,270,30.0,51.0,33,0.00,,,0.01,meteohub,2013-04-13 21:22:00,
2013-04-13 15:32:00,35.2,5.4,23.68,NW,315,36.0,51.0,28,0.00,,,0.01,meteohub,2013-04-13 21:32:00,
2013-04-13 15:37:00,33.1,3.6,23.68,NW,315,34.0,41.0,28,0.00,,,0.01,meteohub,2013-04-13 21:37:00,
2013-04-13 15:47:00,33.1,7.2,23.68,NW,315,33.0,44.0,33,0.00,,,0.01,meteohub,2013-04-13 21:47:00,
2013-04-13 15:52:00,34.5,6.3,23.68,NW,315,36.0,40.0,30,0.00,,,0.01,meteohub,2013-04-13 21:52:00,
2013-04-13 15:57:00,34.9,3.4,23.68,West,270,30.0,39.0,26,0.00,,,0.01,meteohub,2013-04-13 21:57:00,
2013-04-13 16:02:00,34.7,3.4,23.68,NW,315,37.0,38.0,26,0.00,,,0.01,meteohub,2013-04-13 22:02:00,
2013-04-13 16:12:00,34.7,6.4,23.68,NW,315,42.0,42.0,30,0.00,,,0.01,meteohub,2013-04-13 22:12:00,
2013-04-13 16:22:00,33.1,5.7,23.68,NW,315,40.0,50.0,31,0.00,,,0.01,meteohub,2013-04-13 22:22:00,
2013-04-13 16:27:00,34.0,7.9,23.68,NW,315,33.0,50.0,33,0.00,,,0.01,meteohub,2013-04-13 22:27:00,
2013-04-13 16:32:00,33.3,7.3,23.68,NW,315,32.0,43.0,33,0.00,,,0.01,meteohub,2013-04-13 22:32:00,
2013-04-13 16:37:00,32.4,7.2,23.69,NW,315,24.0,43.0,34,0.00,,,0.01,meteohub,2013-04-13 22:37:00,
2013-04-13 16:47:00,33.3,7.9,23.70,NW,315,21.0,35.0,34,0.00,,,0.01,meteohub,2013-04-13 22:47:00,
2013-04-13 16:52:00,35.6,7.2,23.70,NW,315,27.0,34.0,30,0.00,,,0.01,meteohub,2013-04-13 22:52:00,
2013-04-13 16:57:00,32.7,2.5,23.69,WNW,293,29.0,36.0,27,0.00,,,0.01,meteohub,2013-04-13 22:57:00,
2013-04-13 17:07:00,32.5,4.5,23.69,NW,315,26.0,36.0,30,0.00,,,0.01,meteohub,2013-04-13 23:07:00,
2013-04-13 17:12:00,30.9,8.8,23.70,WNW,293,37.0,37.0,39,0.00,,,0.01,meteohub,2013-04-13 23:12:00,
2013-04-13 17:17:00,30.4,11.1,23.71,West,270,40.0,43.0,44,0.00,,,0.01,meteohub,2013-04-13 23:17:00,
2013-04-13 17:22:00,31.5,9.3,23.71,NW,315,36.0,43.0,39,0.00,,,0.01,meteohub,2013-04-13 23:22:00,
2013-04-13 17:27:00,31.5,5.0,23.71,West,270,34.0,40.0,32,0.00,,,0.01,meteohub,2013-04-13 23:27:00,
2013-04-13 17:37:00,29.8,9.0,23.72,WNW,293,28.0,38.0,41,0.00,,,0.01,meteohub,2013-04-13 23:37:00,
2013-04-13 17:42:00,30.0,9.1,23.72,NW,315,30.0,36.0,41,0.00,,,0.01,meteohub,2013-04-13 23:42:00,
2013-04-13 17:52:00,31.6,10.0,23.72,NW,315,33.0,37.0,40,0.00,,,0.01,meteohub,2013-04-13 23:52:00,
2013-04-13 17:57:00,31.5,6.3,23.73,NW,315,41.0,41.0,34,0.00,,,0.01,meteohub,2013-04-13 23:57:00,
2013-04-13 18:02:00,32.0,8.6,23.73,NW,315,30.0,41.0,37,0.00,,,0.01,meteohub,2013-04-14 00:02:00,
2013-04-13 18:07:00,32.0,8.6,23.73,NW,315,30.0,41.0,37,0.00,,,0.00,meteohub,2013-04-14 00:07:00,
2013-04-13 18:12:00,32.4,7.7,23.74,NW,315,25.0,41.0,35,0.00,,,0.00,meteohub,2013-04-14 00:12:00,
2013-04-13 18:17:00,31.6,7.2,23.74,NW,315,27.0,33.0,35,0.00,,,0.00,meteohub,2013-04-14 00:17:00,
2013-04-13 18:22:00,30.9,7.7,23.74,NW,315,28.0,33.0,37,0.00,,,0.00,meteohub,2013-04-14 00:22:00,
2013-04-13 18:27:00,30.7,5.7,23.74,WNW,293,34.0,34.0,34,0.00,,,0.00,meteohub,2013-04-14 00:27:00,
2013-04-13 18:37:00,30.6,10.2,23.75,West,270,29.0,34.0,42,0.00,,,0.00,meteohub,2013-04-14 00:37:00,
2013-04-13 18:42:00,29.3,12.6,23.75,West,270,22.0,34.0,49,0.00,,,0.00,meteohub,2013-04-14 00:42:00,
2013-04-13 18:47:00,29.3,11.1,23.75,West,270,28.0,34.0,46,0.00,,,0.00,meteohub,2013-04-14 00:47:00,
2013-04-13 18:57:00,31.5,9.9,23.75,NW,315,25.0,31.0,40,0.00,,,0.00,meteohub,2013-04-14 00:57:00,
2013-04-13 19:02:00,31.3,9.1,23.75,NW,315,24.0,30.0,39,0.00,,,0.00,meteohub,2013-04-14 01:02:00,
2013-04-13 19:07:00,31.3,9.1,23.75,NW,315,24.0,30.0,39,0.00,,,0.00,meteohub,2013-04-14 01:07:00,
2013-04-13 19:17:00,29.1,5.5,23.75,NW,315,40.0,44.0,36,0.00,,,0.00,meteohub,2013-04-14 01:17:00,
2013-04-13 19:22:00,28.2,7.0,23.75,NW,315,33.0,44.0,40,0.00,,,0.00,meteohub,2013-04-14 01:22:00,
2013-04-13 19:32:00,27.0,10.8,23.75,NW,315,25.0,40.0,50,0.00,,,0.00,meteohub,2013-04-14 01:32:00,
2013-04-13 19:37:00,26.8,11.1,23.76,NW,315,27.0,33.0,51,0.00,,,0.00,meteohub,2013-04-14 01:37:00,
2013-04-13 19:47:00,27.9,7.7,23.76,NW,315,30.0,32.0,42,0.00,,,0.00,meteohub,2013-04-14 01:47:00,
2013-04-13 19:52:00,27.7,9.1,23.77,NW,315,22.0,30.0,45,0.00,,,0.00,meteohub,2013-04-14 01:52:00,
2013-04-13 19:57:00,26.8,10.6,23.77,West,270,21.0,30.0,50,0.00,,,0.00,meteohub,2013-04-14 01:57:00,
2013-04-13 20:07:00,26.8,11.1,23.77,West,270,25.0,26.0,51,0.00,,,0.00,meteohub,2013-04-14 02:07:00,
2013-04-13 20:12:00,26.2,9.7,23.77,West,270,22.0,25.0,49,0.00,,,0.00,meteohub,2013-04-14 02:12:00,
2013-04-13 20:22:00,25.9,9.9,23.78,NW,315,27.0,33.0,50,0.00,,,0.00,meteohub,2013-04-14 02:22:00,
2013-04-13 20:32:00,25.3,10.6,23.78,NW,315,23.0,33.0,53,0.00,,,0.00,meteohub,2013-04-14 02:32:00,
2013-04-13 20:37:00,25.2,10.9,23.77,NW,315,25.0,28.0,54,0.00,,,0.00,meteohub,2013-04-14 02:37:00,
2013-04-13 20:42:00,25.0,11.1,23.77,West,270,27.0,28.0,55,0.00,,,0.00,meteohub,2013-04-14 02:42:00,
2013-04-13 20:52:00,24.8,10.9,23.78,NW,315,30.0,30.0,55,0.00,,,0.00,meteohub,2013-04-14 02:52:00,
2013-04-13 21:02:00,24.6,11.1,23.78,NW,315,28.0,34.0,56,0.00,,,0.00,meteohub,2013-04-14 03:02:00,
2013-04-13 21:07:00,24.6,11.1,23.78,NW,315,28.0,34.0,56,0.00,,,0.00,meteohub,2013-04-14 03:07:00,
2013-04-13 21:12:00,24.4,11.8,23.79,NW,315,27.0,34.0,58,0.00,,,0.00,meteohub,2013-04-14 03:12:00,
2013-04-13 21:17:00,24.3,12.0,23.79,NW,315,27.0,32.0,59,0.00,,,0.00,meteohub,2013-04-14 03:17:00,
2013-04-13 21:22:00,24.1,11.8,23.80,NW,315,23.0,32.0,59,0.00,,,0.00,meteohub,2013-04-14 03:22:00,
2013-04-13 21:27:00,24.1,11.8,23.79,NW,315,29.0,30.0,59,0.00,,,0.00,meteohub,2013-04-14 03:27:00,
2013-04-13 21:32:00,23.9,12.0,23.79,NW,315,21.0,29.0,60,0.00,,,0.00,meteohub,2013-04-14 03:32:00,
2013-04-13 21:37:00,23.9,12.4,23.80,NW,315,25.0,29.0,61,0.00,,,0.00,meteohub,2013-04-14 03:37:00,
2013-04-13 21:42:00,23.7,12.2,23.79,NW,315,23.0,29.0,61,0.00,,,0.00,meteohub,2013-04-14 03:42:00,
2013-04-13 21:47:00,23.7,12.2,23.80,NW,315,27.0,27.0,61,0.00,,,0.00,meteohub,2013-04-14 03:47:00,
2013-04-13 21:57:00,23.7,12.6,23.80,NW,315,23.0,27.0,62,0.00,,,0.00,meteohub,2013-04-14 03:57:00,
2013-04-13 22:02:00,23.7,12.2,23.80,NW,315,27.0,28.0,61,0.00,,,0.00,meteohub,2013-04-14 04:02:00,
2013-04-13 22:07:00,23.7,12.2,23.80,NW,315,27.0,28.0,61,0.00,,,0.00,meteohub,2013-04-14 04:07:00,
2013-04-13 22:12:00,23.4,12.9,23.80,NW,315,21.0,28.0,64,0.00,,,0.00,meteohub,2013-04-14 04:12:00,
2013-04-13 22:17:00,23.5,12.7,23.80,NW,315,23.0,27.0,63,0.00,,,0.00,meteohub,2013-04-14 04:17:00,
2013-04-13 22:27:00,23.7,12.6,23.81,NW,315,21.0,27.0,62,0.00,,,0.00,meteohub,2013-04-14 04:27:00,
2013-04-13 22:37:00,23.5,12.7,23.81,NW,315,20.0,24.0,63,0.00,,,0.00,meteohub,2013-04-14 04:37:00,
2013-04-13 22:42:00,23.5,12.7,23.81,West,270,21.0,23.0,63,0.00,,,0.00,meteohub,2013-04-14 04:42:00,
2013-04-13 22:47:00,23.7,13.3,23.81,WNW,293,17.0,23.0,64,0.00,,,0.00,meteohub,2013-04-14 04:47:00,
2013-04-13 22:57:00,24.1,13.3,23.81,NW,315,18.0,22.0,63,0.00,,,0.00,meteohub,2013-04-14 04:57:00,
2013-04-13 23:02:00,24.1,13.3,23.81,NW,315,20.0,22.0,63,0.00,,,0.00,meteohub,2013-04-14 05:02:00,
2013-04-13 23:07:00,24.1,13.3,23.81,NW,315,20.0,20.0,63,0.00,,,0.00,meteohub,2013-04-14 05:07:00,
2013-04-13 23:12:00,24.1,13.6,23.81,NW,315,18.0,21.0,64,0.00,,,0.00,meteohub,2013-04-14 05:12:00,
2013-04-13 23:17:00,23.9,13.8,23.82,NW,315,17.0,21.0,65,0.00,,,0.00,meteohub,2013-04-14 05:17:00,
2013-04-13 23:27:00,23.9,14.2,23.81,NW,315,19.0,21.0,66,0.00,,,0.00,meteohub,2013-04-14 05:27:00,
2013-04-13 23:32:00,23.7,14.7,23.82,NW,315,17.0,20.0,68,0.00,,,0.00,meteohub,2013-04-14 05:32:00,
2013-04-13 23:42:00,23.7,15.1,23.82,NW,315,18.0,21.0,69,0.00,,,0.00,meteohub,2013-04-14 05:42:00,
2013-04-13 23:47:00,23.7,14.7,23.82,NW,315,18.0,22.0,68,0.00,,,0.00,meteohub,2013-04-14 05:47:00,
2013-04-13 23:57:00,23.4,15.4,23.82,NW,315,18.0,26.0,71,0.00,,,0.00,meteohub,2013-04-14 05:57:00,